Time;durP1;ratioP1;P1;durP2;ratioP2;P2;SDS_P1;SDS_P2;PMS_P1;PMS_P2;Temp;Humidity;BMP_temperature;BMP_pressure;BME280_temperature;BME280_humidity;BME280_pressure;Samples;Min_cycle;Max_cycle;Signal;HPM_P1;HPM_P2
2021/10/01 00:02:18;;;;;;;0.73;0.63;;;18.10;77.20;;;;;;5094240;28;20036;-57
2021/10/01 00:04:44;;;;;;;1.05;0.47;;;18.10;77.20;;;;;;5094220;28;20044;-57
2021/10/01 00:07:11;;;;;;;1.40;0.60;;;18.10;77.20;;;;;;5094099;28;20046;-58
2021/10/01 00:09:38;;;;;;;0.85;0.60;;;18.10;77.20;;;;;;5092687;28;20078;-58
2021/10/01 00:12:06;;;;;;;1.23;0.70;;;18.10;77.20;;;;;;5093239;28;20054;-57
2021/10/01 00:14:33;;;;;;;1.63;0.88;;;18.10;77.20;;;;;;5093860;28;20044;-58
2021/10/01 00:16:59;;;;;;;1.42;0.85;;;18.10;77.20;;;;;;5093442;28;20039;-59
2021/10/01 00:19:25;;;;;;;0.60;0.60;;;18.10;77.20;;;;;;5092056;28;20044;-58
2021/10/01 00:21:51;;;;;;;0.50;0.50;;;18.10;77.20;;;;;;5092980;28;20381;-58
2021/10/01 00:24:18;;;;;;;0.73;0.60;;;18.10;77.20;;;;;;5093460;28;20127;-58
2021/10/01 00:26:43;;;;;;;0.73;0.60;;;18.10;77.20;;;;;;5093392;28;20040;-58
2021/10/01 00:29:10;;;;;;;2.05;0.60;;;18.10;77.90;;;;;;5091953;28;20044;-59
2021/10/01 00:31:36;;;;;;;0.85;0.60;;;18.10;77.20;;;;;;5093268;28;20446;-59
2021/10/01 00:34:03;;;;;;;0.73;0.45;;;18.10;77.20;;;;;;5092929;28;20504;-57
2021/10/01 00:36:29;;;;;;;0.85;0.70;;;18.10;77.20;;;;;;5092986;28;20047;-58
2021/10/01 00:38:57;;;;;;;0.90;0.40;;;18.10;77.20;;;;;;5093221;28;20043;-59
2021/10/01 00:41:23;;;;;;;0.82;0.68;;;18.10;77.20;;;;;;5091922;28;20077;-58
2021/10/01 00:43:49;;;;;;;0.70;0.50;;;18.10;77.20;;;;;;5092713;28;20241;-57
2021/10/01 00:46:14;;;;;;;0.80;0.60;;;18.10;77.20;;;;;;5092282;28;20043;-58
2021/10/01 00:48:40;;;;;;;0.70;0.47;;;18.10;77.20;;;;;;5092951;28;20475;-58
2021/10/01 00:51:06;;;;;;;0.75;0.55;;;18.10;77.20;;;;;;5091941;28;20122;-58
2021/10/01 00:53:33;;;;;;;0.52;0.52;;;18.10;77.20;;;;;;5092831;28;20090;-58
2021/10/01 00:55:59;;;;;;;2.03;0.73;;;18.10;77.20;;;;;;5091643;28;20036;-59
2021/10/01 00:58:25;;;;;;;1.70;0.70;;;18.10;77.20;;;;;;5092838;28;20054;-58
2021/10/01 01:03:40;;;;;;;1.10;0.57;;;18.10;77.20;;;;;;5092296;28;20044;-58
2021/10/01 01:06:15;;;;;;;0.90;0.50;;;18.10;77.20;;;;;;5092400;28;20044;-57
2021/10/01 01:08:51;;;;;;;0.80;0.68;;;18.10;77.20;;;;;;5092706;28;20492;-58
2021/10/01 01:11:49;;;;;;;0.70;0.43;;;18.20;77.30;;;;;;5092878;28;20207;-57
2021/10/01 01:14:22;;;;;;;1.27;0.52;;;18.10;77.30;;;;;;5049780;28;20143;-58
2021/10/01 01:16:49;;;;;;;0.50;0.50;;;18.10;77.20;;;;;;5050159;28;20052;-58
2021/10/01 01:19:30;;;;;;;1.30;0.50;;;18.10;77.20;;;;;;5049410;28;20394;-58
2021/10/01 01:22:09;;;;;;;0.88;0.65;;;18.10;77.90;;;;;;5049454;28;20525;-58
2021/10/01 01:24:41;;;;;;;0.98;0.60;;;18.10;77.30;;;;;;5049462;28;20114;-57
2021/10/01 01:27:26;;;;;;;0.60;0.50;;;18.10;77.30;;;;;;5049970;28;20167;-56
2021/10/01 01:30:11;;;;;;;0.63;0.45;;;18.10;77.30;;;;;;5049924;28;20420;-57
2021/10/01 01:32:41;;;;;;;0.60;0.45;;;18.10;77.20;;;;;;5032876;28;20055;-57
2021/10/01 01:35:12;;;;;;;1.13;0.52;;;18.10;77.20;;;;;;5048780;28;20045;-55
2021/10/01 01:37:49;;;;;;;0.63;0.60;;;18.10;77.30;;;;;;5049650;28;20072;-58
2021/10/01 01:40:17;;;;;;;1.23;0.45;;;18.10;77.30;;;;;;5032675;28;20113;-56
2021/10/01 01:42:44;;;;;;;0.65;0.50;;;18.10;77.30;;;;;;5049640;28;20056;-57
2021/10/01 01:45:14;;;;;;;0.70;0.60;;;18.10;77.20;;;;;;5049669;28;20057;-58
2021/10/01 01:47:41;;;;;;;0.50;0.50;;;18.10;77.20;;;;;;5049040;28;20045;-57
2021/10/01 01:50:08;;;;;;;1.25;0.60;;;18.10;77.20;;;;;;5053197;28;20041;-58
2021/10/01 01:52:36;;;;;;;1.17;0.73;;;18.10;77.20;;;;;;5091715;28;20036;-58
2021/10/01 01:55:03;;;;;;;1.25;0.70;;;18.10;77.20;;;;;;5092045;28;20543;-58
2021/10/01 01:57:30;;;;;;;1.65;0.73;;;18.10;77.20;;;;;;5090486;28;20068;-59
2021/10/01 01:59:57;;;;;;;0.70;0.47;;;18.10;77.20;;;;;;5091018;28;20531;-58
2021/10/01 02:02:25;;;;;;;1.75;0.80;;;18.10;77.20;;;;;;5092126;28;20098;-58
2021/10/01 02:04:52;;;;;;;0.82;0.60;;;18.10;77.20;;;;;;5090939;28;20044;-58
2021/10/01 02:07:20;;;;;;;1.15;0.50;;;18.10;77.20;;;;;;5091487;28;20044;-58
2021/10/01 02:09:47;;;;;;;1.17;0.50;;;18.10;77.20;;;;;;5090434;28;20055;-58
2021/10/01 02:12:14;;;;;;;0.32;0.32;;;18.10;77.20;;;;;;5091802;28;20460;-58
2021/10/01 02:14:45;;;;;;;1.20;0.68;;;18.10;77.20;;;;;;5091987;28;20050;-57
2021/10/01 02:17:13;;;;;;;0.73;0.50;;;18.10;77.20;;;;;;5091920;28;20468;-57
2021/10/01 02:19:42;;;;;;;0.80;0.60;;;18.10;77.20;;;;;;5091810;28;20043;-58
2021/10/01 02:22:09;;;;;;;0.63;0.63;;;18.10;77.20;;;;;;5089961;28;20381;-58
2021/10/01 02:24:35;;;;;;;0.40;0.40;;;18.10;77.10;;;;;;5091243;28;20041;-59
2021/10/01 02:27:16;;;;;;;0.60;0.60;;;18.10;77.20;;;;;;5091408;28;20063;-59
2021/10/01 02:29:55;;;;;;;0.38;0.38;;;18.10;77.20;;;;;;5091383;28;20127;-59
2021/10/01 02:32:24;;;;;;;1.08;0.60;;;18.10;77.20;;;;;;5091904;28;20055;-59
2021/10/01 02:34:50;;;;;;;0.65;0.60;;;18.10;77.20;;;;;;5095606;28;20036;-59
2021/10/01 02:37:17;;;;;;;0.43;0.40;;;18.10;77.20;;;;;;5095424;28;20040;-58
2021/10/01 02:39:46;;;;;;;0.50;0.50;;;18.10;77.20;;;;;;5094619;28;20040;-58
2021/10/01 02:42:13;;;;;;;1.10;0.50;;;18.10;77.20;;;;;;5095460;28;20124;-59
2021/10/01 02:44:40;;;;;;;0.75;0.55;;;18.10;77.10;;;;;;5095430;28;20060;-58
2021/10/01 02:47:07;;;;;;;0.45;0.45;;;18.10;77.10;;;;;;5095602;28;20384;-57
2021/10/01 02:49:33;;;;;;;1.23;0.82;;;18.10;77.10;;;;;;5095177;28;20047;-56
2021/10/01 02:52:11;;;;;;;0.95;0.50;;;18.10;77.10;;;;;;5095180;28;20036;-59
2021/10/01 02:54:45;;;;;;;1.13;0.60;;;18.10;77.80;;;;;;5095186;28;20044;-58
2021/10/01 02:57:15;;;;;;;0.60;0.40;;;18.10;77.20;;;;;;5095439;28;20036;-60
2021/10/01 02:59:44;;;;;;;0.60;0.60;;;18.10;77.20;;;;;;5093806;28;20048;-62
2021/10/01 03:02:11;;;;;;;0.45;0.40;;;18.10;77.20;;;;;;5093645;28;20428;-61
2021/10/01 03:04:37;;;;;;;0.57;0.50;;;18.10;77.10;;;;;;5094822;28;20520;-57
2021/10/01 03:07:04;;;;;;;0.93;0.60;;;18.10;77.10;;;;;;5094901;28;20051;-57
2021/10/01 03:09:32;;;;;;;1.23;0.80;;;18.10;77.20;;;;;;5094905;28;20051;-58
2021/10/01 03:12:00;;;;;;;0.93;0.65;;;18.10;77.20;;;;;;5094471;28;20441;-58
2021/10/01 03:14:28;;;;;;;1.02;0.65;;;18.10;77.10;;;;;;5094748;28;20036;-58
2021/10/01 03:16:56;;;;;;;0.50;0.50;;;18.00;77.00;;;;;;5094704;28;20146;-59
2021/10/01 03:19:24;;;;;;;1.27;0.60;;;18.10;77.10;;;;;;5094847;28;20144;-58
2021/10/01 03:21:55;;;;;;;1.30;0.57;;;18.00;77.00;;;;;;5093867;28;20823;-58
2021/10/01 03:24:22;;;;;;;1.90;0.60;;;18.10;77.10;;;;;;5093281;28;20051;-59
2021/10/01 03:26:48;;;;;;;0.55;0.50;;;18.10;77.10;;;;;;5094344;28;20192;-60
2021/10/01 03:29:14;;;;;;;0.88;0.60;;;18.10;77.10;;;;;;5094540;28;20063;-61
2021/10/01 03:31:40;;;;;;;0.95;0.60;;;18.10;77.10;;;;;;5094387;28;20426;-62
2021/10/01 03:34:07;;;;;;;1.10;0.70;;;18.10;77.10;;;;;;5093914;28;20061;-62
2021/10/01 03:36:35;;;;;;;0.82;0.50;;;18.10;77.10;;;;;;5094306;28;20051;-61
2021/10/01 03:39:02;;;;;;;1.52;0.68;;;18.10;77.10;;;;;;5094509;28;20119;-62
2021/10/01 03:41:28;;;;;;;1.27;0.60;;;18.10;77.10;;;;;;5094088;28;20088;-62
2021/10/01 03:43:53;;;;;;;0.60;0.50;;;18.10;77.10;;;;;;5093545;28;20046;-60
2021/10/01 03:46:20;;;;;;;0.30;0.30;;;18.10;77.10;;;;;;5094267;28;20056;-59
2021/10/01 03:48:45;;;;;;;0.57;0.52;;;18.10;77.10;;;;;;5093037;28;20116;-62
2021/10/01 03:51:12;;;;;;;0.52;0.50;;;18.10;77.10;;;;;;5093943;28;20888;-62
2021/10/01 03:53:38;;;;;;;0.50;0.50;;;18.10;77.10;;;;;;5093824;28;20040;-61
2021/10/01 03:56:08;;;;;;;2.33;0.70;;;18.10;77.20;;;;;;5094136;28;20040;-62
2021/10/01 03:58:34;;;;;;;0.43;0.43;;;18.10;77.10;;;;;;5093554;28;20084;-62
2021/10/01 04:00:59;;;;;;;0.50;0.50;;;18.10;77.10;;;;;;5093941;28;20098;-59
2021/10/01 04:03:25;;;;;;;1.33;0.70;;;18.10;77.10;;;;;;5094171;28;20032;-63
2021/10/01 04:05:53;;;;;;;1.33;0.52;;;18.10;77.10;;;;;;5093329;28;20147;-61
2021/10/01 04:08:18;;;;;;;1.60;0.50;;;18.10;77.10;;;;;;5093655;28;20048;-60
2021/10/01 04:10:44;;;;;;;0.73;0.50;;;18.10;77.10;;;;;;5093043;28;20046;-61
2021/10/01 04:13:09;;;;;;;0.95;0.63;;;18.10;77.10;;;;;;5092602;28;20560;-60
2021/10/01 04:15:36;;;;;;;0.98;0.68;;;18.10;77.10;;;;;;5093097;28;20127;-62
2021/10/01 04:18:03;;;;;;;0.60;0.52;;;18.10;77.10;;;;;;5093453;28;20047;-60
2021/10/01 04:20:29;;;;;;;0.40;0.40;;;18.10;77.10;;;;;;5093390;28;20044;-61
2021/10/01 04:22:54;;;;;;;0.80;0.60;;;18.10;77.10;;;;;;5093126;28;20445;-61
2021/10/01 04:25:20;;;;;;;0.38;0.38;;;18.10;77.00;;;;;;5093092;28;20169;-60
2021/10/01 04:27:46;;;;;;;0.82;0.55;;;18.10;77.10;;;;;;5093624;28;20049;-62
2021/10/01 04:30:11;;;;;;;0.52;0.47;;;18.10;77.00;;;;;;5092838;28;20036;-59
2021/10/01 04:32:44;;;;;;;0.75;0.68;;;18.10;77.10;;;;;;5093131;28;20079;-60
2021/10/01 04:35:09;;;;;;;0.52;0.50;;;18.10;77.00;;;;;;5093227;28;20101;-59
2021/10/01 04:37:35;;;;;;;1.00;0.60;;;18.10;77.00;;;;;;5092685;28;20051;-61
2021/10/01 04:40:01;;;;;;;0.73;0.60;;;18.10;77.10;;;;;;5093257;28;20040;-60
2021/10/01 04:42:27;;;;;;;0.40;0.40;;;18.10;77.10;;;;;;5093231;28;20417;-60
2021/10/01 04:44:53;;;;;;;1.05;0.60;;;18.10;77.70;;;;;;5092648;28;20052;-60
2021/10/01 04:47:19;;;;;;;0.50;0.50;;;18.10;77.00;;;;;;5091338;28;20448;-62
2021/10/01 04:49:44;;;;;;;0.50;0.50;;;18.10;77.00;;;;;;5092815;28;20040;-61
2021/10/01 04:52:10;;;;;;;0.40;0.40;;;18.10;77.00;;;;;;5091639;28;20048;-58
2021/10/01 04:54:36;;;;;;;0.63;0.55;;;18.10;77.00;;;;;;5093144;28;20043;-60
2021/10/01 04:57:02;;;;;;;0.82;0.60;;;18.10;77.00;;;;;;5092183;28;20040;-57
2021/10/01 04:59:29;;;;;;;0.57;0.40;;;18.00;77.00;;;;;;5093478;28;20044;-60
2021/10/01 05:01:55;;;;;;;0.38;0.32;;;18.10;77.00;;;;;;5092655;28;20100;-63
2021/10/01 05:04:20;;;;;;;0.70;0.52;;;18.10;77.10;;;;;;5092603;28;20475;-59
2021/10/01 05:06:46;;;;;;;0.60;0.57;;;18.10;77.00;;;;;;5092680;28;20040;-60
2021/10/01 05:09:12;;;;;;;1.17;0.50;;;18.10;77.00;;;;;;5091016;28;20044;-60
2021/10/01 05:11:37;;;;;;;0.70;0.45;;;18.10;77.00;;;;;;5091189;28;20081;-61
2021/10/01 05:14:03;;;;;;;1.17;0.50;;;18.10;77.00;;;;;;5092614;28;20044;-60
2021/10/01 05:16:29;;;;;;;0.40;0.40;;;18.10;77.00;;;;;;5092006;28;20121;-59
2021/10/01 05:18:54;;;;;;;0.80;0.57;;;18.10;77.00;;;;;;5092086;28;20039;-61
2021/10/01 05:21:20;;;;;;;0.57;0.55;;;18.10;77.00;;;;;;5092369;28;20151;-62
2021/10/01 05:23:46;;;;;;;0.50;0.47;;;18.10;77.00;;;;;;5091953;28;20135;-60
2021/10/01 05:26:11;;;;;;;0.40;0.30;;;18.10;77.00;;;;;;5092410;28;20040;-61
2021/10/01 05:28:37;;;;;;;0.50;0.50;;;18.10;77.00;;;;;;5092297;28;20036;-60
2021/10/01 05:31:03;;;;;;;0.50;0.47;;;18.10;77.00;;;;;;5091989;28;20095;-60
2021/10/01 05:33:29;;;;;;;0.73;0.50;;;18.10;77.00;;;;;;5091814;28;20035;-58
2021/10/01 05:35:54;;;;;;;0.60;0.50;;;18.10;77.60;;;;;;5091630;28;20181;-60
2021/10/01 05:38:20;;;;;;;0.38;0.38;;;18.10;77.00;;;;;;5089698;28;20040;-57
2021/10/01 05:40:46;;;;;;;0.95;0.45;;;18.10;77.00;;;;;;5091055;28;20399;-57
2021/10/01 05:43:12;;;;;;;1.00;0.60;;;18.10;77.00;;;;;;5091414;28;20137;-58
2021/10/01 05:45:40;;;;;;;0.80;0.63;;;18.10;77.00;;;;;;5091867;28;20048;-60
2021/10/01 05:48:06;;;;;;;0.50;0.50;;;18.10;77.00;;;;;;5091319;28;20040;-58
2021/10/01 05:50:34;;;;;;;0.68;0.40;;;18.10;77.00;;;;;;5091545;28;20126;-58
2021/10/01 05:53:07;;;;;;;0.45;0.40;;;18.10;77.00;;;;;;5091672;28;20057;-58
2021/10/01 05:55:33;;;;;;;1.05;0.68;;;18.10;77.00;;;;;;5092216;28;20119;-58
2021/10/01 05:57:59;;;;;;;0.93;0.70;;;18.10;77.00;;;;;;5092204;28;20538;-57
2021/10/01 06:00:24;;;;;;;0.80;0.68;;;18.10;77.00;;;;;;5091870;28;20043;-58
2021/10/01 06:02:52;;;;;;;0.63;0.50;;;18.10;77.00;;;;;;5091988;28;20458;-58
2021/10/01 06:05:18;;;;;;;0.82;0.60;;;18.10;77.00;;;;;;5091605;28;20380;-58
2021/10/01 06:07:43;;;;;;;0.50;0.43;;;18.10;77.00;;;;;;5091079;28;20123;-58
2021/10/01 06:10:10;;;;;;;0.77;0.50;;;18.00;76.90;;;;;;5094917;28;20465;-57
2021/10/01 06:12:36;;;;;;;0.73;0.63;;;18.10;77.00;;;;;;5095902;28;20119;-58
2021/10/01 06:15:03;;;;;;;0.73;0.50;;;18.10;76.90;;;;;;5096108;28;20541;-58
2021/10/01 06:17:28;;;;;;;0.90;0.55;;;18.10;76.90;;;;;;5096765;28;20051;-59
2021/10/01 06:19:54;;;;;;;0.98;0.60;;;18.10;76.90;;;;;;5095546;28;20036;-59
2021/10/01 06:22:20;;;;;;;0.40;0.40;;;18.10;76.90;;;;;;5095223;28;20480;-56
2021/10/01 06:24:48;;;;;;;0.75;0.60;;;18.10;76.90;;;;;;5081123;28;20058;-61
2021/10/01 06:27:15;;;;;;;0.50;0.50;;;18.00;76.90;;;;;;5095809;28;20040;-59
2021/10/01 06:29:41;;;;;;;0.70;0.50;;;18.10;76.90;;;;;;5095473;28;20044;-57
2021/10/01 06:32:07;;;;;;;0.60;0.43;;;18.10;76.90;;;;;;5095664;28;20047;-59
2021/10/01 06:34:33;;;;;;;0.63;0.55;;;18.10;77.50;;;;;;5094954;28;20487;-58
2021/10/01 06:36:58;;;;;;;0.68;0.40;;;18.10;76.90;;;;;;5095219;28;20119;-58
2021/10/01 06:39:24;;;;;;;0.52;0.50;;;18.10;77.00;;;;;;5095227;28;20373;-58
2021/10/01 06:41:49;;;;;;;0.65;0.40;;;18.00;76.80;;;;;;5095269;28;20032;-58
2021/10/01 06:44:22;;;;;;;0.80;0.50;;;18.00;76.80;;;;;;5095181;28;20134;-59
2021/10/01 06:46:55;;;;;;;0.82;0.57;;;17.90;76.80;;;;;;5095408;28;20097;-59
2021/10/01 07:29:31;;;;;;;0.95;0.55;;;17.90;76.80;;;;;;5094198;28;20056;-59
2021/10/01 07:35:58;;;;;;;0.40;0.35;;;18.00;76.90;;;;;;5093654;28;20048;-61
2021/10/01 08:19:25;;;;;;;0.43;0.43;;;18.00;76.90;;;;;;5088965;28;20040;-57
2021/10/01 08:21:57;;;;;;;0.52;0.40;;;18.00;76.90;;;;;;5092512;28;20044;-56
2021/10/01 08:24:24;;;;;;;1.50;0.60;;;18.00;76.90;;;;;;5093060;28;20181;-58
2021/10/01 08:26:50;;;;;;;1.15;0.57;;;18.00;76.80;;;;;;5092566;28;20043;-57
2021/10/01 08:29:17;;;;;;;0.40;0.40;;;18.00;76.80;;;;;;5092647;28;20051;-57
2021/10/01 08:31:42;;;;;;;1.30;0.60;;;18.00;76.80;;;;;;5091900;28;20388;-57
2021/10/01 08:34:09;;;;;;;0.98;0.60;;;18.00;76.80;;;;;;5091876;28;20047;-56
2021/10/01 08:36:35;;;;;;;0.70;0.57;;;18.00;76.90;;;;;;5092587;28;20055;-60
2021/10/01 08:39:01;;;;;;;0.73;0.50;;;18.00;76.80;;;;;;5092609;28;20071;-58
2021/10/01 08:41:27;;;;;;;1.30;0.73;;;18.00;76.90;;;;;;5091849;28;20044;-60
2021/10/01 08:43:53;;;;;;;0.98;0.60;;;18.00;76.80;;;;;;5092455;28;20036;-59
2021/10/01 08:46:19;;;;;;;0.55;0.55;;;18.00;77.50;;;;;;5092306;28;20051;-59
2021/10/01 08:48:45;;;;;;;1.30;0.68;;;18.00;76.90;;;;;;5092483;28;20101;-60
2021/10/01 08:51:13;;;;;;;0.65;0.40;;;18.00;76.80;;;;;;5092480;28;20126;-59
2021/10/01 08:53:39;;;;;;;1.08;0.80;;;18.00;76.90;;;;;;5073149;28;20044;-59
2021/10/01 08:56:05;;;;;;;0.75;0.55;;;18.00;76.80;;;;;;5091989;28;20054;-59
2021/10/01 08:58:31;;;;;;;0.93;0.50;;;18.00;76.90;;;;;;5090697;28;20582;-58
2021/10/01 09:00:59;;;;;;;3.65;0.98;;;18.00;76.90;;;;;;5091094;28;20055;-58
2021/10/01 09:03:25;;;;;;;0.90;0.70;;;18.00;76.00;;;;;;5091694;28;20044;-58
2021/10/01 09:05:51;;;;;;;2.00;0.70;;;18.00;75.60;;;;;;5092766;28;20046;-58
2021/10/01 09:08:19;;;;;;;2.38;0.90;;;18.00;75.70;;;;;;5092518;28;20085;-54
2021/10/01 09:11:01;;;;;;;1.33;0.75;;;18.00;75.70;;;;;;5091931;28;20404;-57
2021/10/01 09:13:27;;;;;;;4.65;1.13;;;18.00;75.90;;;;;;5091533;28;20124;-60
2021/10/01 09:16:09;;;;;;;3.15;0.88;;;18.00;74.70;;;;;;5092076;28;20093;-61
2021/10/01 09:18:39;;;;;;;4.38;1.00;;;18.00;74.70;;;;;;5091997;28;20047;-60
2021/10/01 09:21:08;;;;;;;2.25;1.10;;;18.00;74.40;;;;;;5092110;28;20044;-59
2021/10/01 09:23:41;;;;;;;0.90;0.80;;;17.90;74.50;;;;;;5080439;28;20500;-60
2021/10/01 09:26:17;;;;;;;9.45;1.65;;;17.90;74.60;;;;;;5090671;28;20051;-59
2021/10/01 09:28:52;;;;;;;2.22;1.20;;;17.90;73.40;;;;;;5090174;28;20069;-60
2021/10/01 09:31:36;;;;;;;7.20;1.42;;;17.90;73.40;;;;;;5092281;28;20341;-63
2021/10/01 09:34:03;;;;;;;7.65;1.58;;;17.90;74.00;;;;;;5092196;28;20074;-63
2021/10/01 09:36:29;;;;;;;4.07;1.40;;;17.90;73.90;;;;;;5092005;28;20071;-63
2021/10/01 09:38:56;;;;;;;4.47;1.55;;;18.00;74.10;;;;;;5091823;28;20032;-59
2021/10/01 09:41:26;;;;;;;3.42;1.20;;;18.00;74.20;;;;;;5091409;28;20044;-61
2021/10/01 09:44:13;;;;;;;3.65;1.38;;;17.90;74.30;;;;;;5091833;28;20089;-62
2021/10/01 09:46:47;;;;;;;4.32;1.60;;;18.00;73.20;;;;;;5092154;28;20048;-63
2021/10/01 09:49:15;;;;;;;4.78;1.30;;;17.90;73.20;;;;;;5091846;28;20480;-65
2021/10/01 09:51:52;;;;;;;5.68;1.75;;;17.90;73.40;;;;;;5092191;28;20511;-64
2021/10/01 09:54:19;;;;;;;4.25;1.70;;;17.90;73.60;;;;;;5092150;28;20063;-66
2021/10/01 09:56:46;;;;;;;3.00;1.15;;;17.80;73.70;;;;;;5091850;28;20097;-65
2021/10/01 09:59:11;;;;;;;4.00;1.35;;;17.90;73.90;;;;;;5090882;28;20040;-65
2021/10/01 10:02:00;;;;;;;3.90;1.38;;;18.00;74.10;;;;;;5090795;28;20052;-66
2021/10/01 10:04:32;;;;;;;1.67;1.00;;;17.90;74.40;;;;;;5092029;28;20048;-63
2021/10/01 10:07:06;;;;;;;3.80;1.27;;;17.90;74.30;;;;;;5091982;28;20044;-62
2021/10/01 10:09:36;;;;;;;3.53;1.50;;;17.90;74.40;;;;;;5091712;28;20089;-65
2021/10/01 10:12:03;;;;;;;2.95;1.30;;;17.90;74.50;;;;;;5091614;28;20076;-59
2021/10/01 10:14:33;;;;;;;3.50;1.50;;;17.90;74.70;;;;;;5091860;28;20413;-65
2021/10/01 10:16:59;;;;;;;1.60;1.15;;;18.00;74.90;;;;;;5091418;28;20400;-66
2021/10/01 10:19:30;;;;;;;2.72;1.20;;;17.90;74.90;;;;;;5091353;28;20044;-66
2021/10/01 10:21:57;;;;;;;1.40;0.88;;;18.00;75.00;;;;;;5091761;28;20067;-65
2021/10/01 10:24:22;;;;;;;1.38;0.90;;;18.00;75.10;;;;;;5091540;28;20047;-62
2021/10/01 10:26:48;;;;;;;2.50;1.02;;;18.00;75.20;;;;;;5091440;28;20040;-63
2021/10/01 10:29:14;;;;;;;1.92;0.93;;;17.90;75.20;;;;;;5087054;28;20074;-64
2021/10/01 10:31:44;;;;;;;1.67;1.00;;;18.00;75.40;;;;;;5087056;28;20505;-64
2021/10/01 10:35:08;;;;;;;0.75;0.73;;;18.00;75.40;;;;;;5086796;28;20546;-63
2021/10/01 10:37:42;;;;;;;1.80;0.70;;;18.00;75.60;;;;;;4989550;28;20454;-64
2021/10/01 10:40:17;;;;;;;3.05;0.85;;;18.00;75.70;;;;;;4989708;28;20169;-63
2021/10/01 10:43:00;;;;;;;1.35;0.70;;;18.00;75.70;;;;;;4997984;28;20497;-65
2021/10/01 10:45:27;;;;;;;2.10;0.82;;;18.00;75.70;;;;;;5007820;28;20483;-64
2021/10/01 10:48:01;;;;;;;1.45;0.93;;;18.00;75.80;;;;;;5006474;28;20054;-66
2021/10/01 10:50:45;;;;;;;0.93;0.68;;;18.00;75.80;;;;;;4990086;28;20046;-61
2021/10/01 10:53:19;;;;;;;1.98;0.90;;;18.00;75.90;;;;;;4990002;28;20042;-61
2021/10/01 10:55:49;;;;;;;1.98;0.80;;;18.00;75.90;;;;;;5003752;28;20505;-64
2021/10/01 10:58:24;;;;;;;1.40;0.75;;;18.00;76.00;;;;;;5003135;28;20081;-64
2021/10/01 11:00:54;;;;;;;;;;;18.00;76.00;;;;;;5013610;28;20418;-58
2021/10/01 11:03:22;;;;;;;2.17;0.90;;;18.00;76.40;;;;;;5012780;28;19925;-61
2021/10/01 11:06:13;;;;;;;0.90;0.55;;;18.00;76.10;;;;;;5011404;28;20076;-65
2021/10/01 11:08:40;;;;;;;0.65;0.55;;;18.20;76.30;;;;;;5009148;28;20058;-58
2021/10/01 11:11:26;;;;;;;1.63;0.73;;;18.00;76.20;;;;;;5012442;28;20569;-63
2021/10/01 11:13:52;;;;;;;0.93;0.60;;;18.00;76.20;;;;;;5051110;28;20055;-61
2021/10/01 11:16:19;;;;;;;1.33;0.70;;;18.00;76.20;;;;;;5095285;28;20044;-62
2021/10/01 11:18:45;;;;;;;1.10;0.50;;;18.00;76.20;;;;;;5095107;28;20113;-57
2021/10/01 11:24:08;;;;;;;1.07;0.60;;;18.00;76.40;;;;;;5095207;28;20192;-65
2021/10/01 11:26:41;;;;;;;1.25;0.60;;;18.00;76.30;;;;;;5091434;28;20115;-59
2021/10/01 11:29:30;;;;;;;1.90;0.80;;;18.10;76.40;;;;;;5094445;28;20036;-58
2021/10/01 11:32:08;;;;;;;1.10;0.70;;;18.10;76.40;;;;;;5095146;28;20044;-65
2021/10/01 11:34:37;;;;;;;1.33;0.75;;;18.10;76.40;;;;;;5094274;28;20044;-62
2021/10/01 11:37:03;;;;;;;0.82;0.65;;;18.10;76.40;;;;;;5094503;28;20043;-63
2021/10/01 11:39:34;;;;;;;1.45;0.73;;;18.00;76.40;;;;;;5094945;28;20044;-61
2021/10/01 11:42:00;;;;;;;0.52;0.45;;;18.10;76.40;;;;;;5093234;28;20522;-60
2021/10/01 11:44:26;;;;;;;1.52;0.82;;;18.10;76.40;;;;;;5094597;28;20040;-60
2021/10/01 11:46:51;;;;;;;1.42;0.70;;;18.00;76.40;;;;;;5094159;28;20044;-61
2021/10/01 11:49:24;;;;;;;0.77;0.63;;;18.10;76.50;;;;;;5094464;28;20040;-61
2021/10/01 11:52:10;;;;;;;0.85;0.63;;;18.10;76.50;;;;;;5094212;28;20091;-64
2021/10/01 11:54:36;;;;;;;3.60;0.80;;;18.10;76.00;;;;;;5074484;28;20489;-58
2021/10/01 11:57:05;;;;;;;1.63;0.88;;;18.00;76.00;;;;;;5092291;28;20115;-62
2021/10/01 12:00:00;;;;;;;1.63;0.65;;;18.00;75.80;;;;;;5093768;28;20396;-62
2021/10/01 12:02:41;;;;;;;1.70;0.80;;;18.00;75.90;;;;;;5093945;28;20505;-59
2021/10/01 12:05:33;;;;;;;3.25;1.10;;;18.10;76.00;;;;;;5094494;28;20053;-58
2021/10/01 12:08:10;;;;;;;2.40;0.98;;;18.10;76.00;;;;;;5093875;28;20494;-63
2021/10/01 12:10:39;;;;;;;2.97;1.00;;;18.10;76.00;;;;;;5094344;28;20036;-57
2021/10/01 12:13:13;;;;;;;2.17;1.00;;;18.10;76.00;;;;;;5094154;28;20427;-57
2021/10/01 12:15:55;;;;;;;1.35;0.75;;;18.10;76.00;;;;;;5094197;28;20040;-56
2021/10/01 12:18:34;;;;;;;0.98;0.60;;;18.10;76.10;;;;;;5092538;28;20083;-62
2021/10/01 12:21:15;;;;;;;2.00;0.75;;;18.10;76.20;;;;;;5092529;28;20492;-57
2021/10/01 12:23:49;;;;;;;1.33;0.90;;;18.00;76.10;;;;;;5092473;28;20055;-58
2021/10/01 12:26:42;;;;;;;1.10;0.80;;;18.10;76.20;;;;;;5093965;28;20048;-63
2021/10/01 12:29:10;;;;;;;2.55;0.70;;;18.10;76.20;;;;;;5088698;28;20530;-58
2021/10/01 12:31:39;;;;;;;1.58;0.70;;;18.10;76.20;;;;;;5093482;28;20101;-58
2021/10/01 12:34:09;;;;;;;1.73;0.68;;;18.10;76.20;;;;;;5093736;28;20063;-58
2021/10/01 12:36:36;;;;;;;2.13;0.88;;;18.10;76.20;;;;;;5093362;28;20139;-61
2021/10/01 12:39:03;;;;;;;2.75;1.10;;;18.10;76.30;;;;;;5090932;28;20040;-64
2021/10/01 12:41:29;;;;;;;1.60;0.90;;;18.10;76.30;;;;;;5089293;28;20044;-61
2021/10/01 12:43:58;;;;;;;2.10;0.68;;;18.10;76.30;;;;;;5089167;28;20086;-58
2021/10/01 12:46:38;;;;;;;0.80;0.60;;;18.10;76.30;;;;;;5089095;28;20079;-59
2021/10/01 12:49:12;;;;;;;1.25;0.70;;;18.10;76.30;;;;;;5089986;28;20131;-58
2021/10/01 12:51:38;;;;;;;1.52;0.50;;;18.10;76.40;;;;;;5089881;28;20447;-62
2021/10/01 12:54:32;;;;;;;2.28;0.88;;;18.10;76.40;;;;;;5089331;28;20040;-58
2021/10/01 12:57:24;;;;;;;1.02;0.80;;;18.10;76.40;;;;;;5089077;28;20403;-55
2021/10/01 12:59:59;;;;;;;0.98;0.70;;;18.10;76.40;;;;;;5081252;28;20218;-62
2021/10/01 13:02:31;;;;;;;1.45;0.80;;;18.10;76.40;;;;;;5089177;28;20046;-55
2021/10/01 13:05:00;;;;;;;0.93;0.60;;;18.10;76.40;;;;;;5089391;28;20056;-58
2021/10/01 13:07:27;;;;;;;0.47;0.40;;;18.10;76.40;;;;;;5089143;28;20062;-61
2021/10/01 13:09:56;;;;;;;0.68;0.55;;;18.10;76.40;;;;;;5088347;28;20582;-63
2021/10/01 13:12:45;;;;;;;0.63;0.50;;;18.10;76.40;;;;;;5088948;28;20092;-63
2021/10/01 13:15:15;;;;;;;1.10;0.77;;;18.10;76.50;;;;;;5089105;28;20085;-62
2021/10/01 13:17:41;;;;;;;1.33;0.45;;;18.10;76.40;;;;;;5087318;28;20044;-62
2021/10/01 13:20:08;;;;;;;0.82;0.50;;;18.10;76.40;;;;;;5089447;28;20186;-62
2021/10/01 13:22:53;;;;;;;1.05;0.43;;;18.10;76.40;;;;;;5088597;28;20571;-62
2021/10/01 13:25:24;;;;;;;1.30;0.60;;;18.10;76.50;;;;;;5075738;28;20040;-63
2021/10/01 13:27:51;;;;;;;1.05;0.60;;;18.10;76.40;;;;;;5092078;28;20044;-64
2021/10/01 13:30:17;;;;;;;1.33;0.60;;;18.10;76.40;;;;;;5092572;28;20047;-63
2021/10/01 13:32:43;;;;;;;0.52;0.47;;;18.10;76.40;;;;;;5092833;28;20044;-63
2021/10/01 13:35:10;;;;;;;1.02;0.57;;;18.10;76.40;;;;;;5092143;28;20040;-63
2021/10/01 13:37:36;;;;;;;0.57;0.50;;;18.10;76.40;;;;;;5092968;28;20044;-63
2021/10/01 13:40:02;;;;;;;1.35;0.68;;;18.10;76.40;;;;;;5092280;28;20039;-62
2021/10/01 13:42:27;;;;;;;0.70;0.60;;;18.10;76.40;;;;;;5091655;28;20067;-63
2021/10/01 13:44:53;;;;;;;1.63;0.63;;;18.10;76.40;;;;;;5092195;28;20402;-63
2021/10/01 13:47:19;;;;;;;0.50;0.50;;;18.10;76.40;;;;;;5093149;28;20046;-62
2021/10/01 13:49:44;;;;;;;1.13;0.60;;;18.10;76.40;;;;;;5092400;28;20519;-62
2021/10/01 13:52:10;;;;;;;5.20;2.50;;;18.00;76.40;;;;;;5090966;28;20126;-64
2021/10/01 13:54:36;;;;;;;6.38;2.60;;;18.10;76.20;;;;;;5092109;28;20381;-58
2021/10/01 13:57:01;;;;;;;4.43;2.40;;;18.00;76.40;;;;;;5091145;28;20068;-57
2021/10/01 13:59:27;;;;;;;5.38;2.40;;;17.90;76.80;;;;;;5090900;28;20051;-56
2021/10/01 14:01:53;;;;;;;6.43;2.10;;;17.90;77.40;;;;;;5092702;28;20040;-58
2021/10/01 14:04:18;;;;;;;3.33;2.28;;;17.90;77.80;;;;;;5092209;28;20044;-58
2021/10/01 14:06:45;;;;;;;5.13;2.55;;;17.90;78.10;;;;;;5092581;28;20079;-58
2021/10/01 14:09:11;;;;;;;5.07;2.25;;;17.90;78.50;;;;;;5092609;28;20111;-59
2021/10/01 14:11:36;;;;;;;6.30;2.05;;;17.90;78.80;;;;;;5091997;28;20424;-59
2021/10/01 14:14:02;;;;;;;7.00;2.45;;;17.90;79.10;;;;;;5090772;28;20074;-58
2021/10/01 14:16:28;;;;;;;3.67;2.10;;;17.90;79.30;;;;;;5092348;28;20048;-58
2021/10/01 14:18:53;;;;;;;4.15;2.13;;;17.90;79.50;;;;;;5088555;28;20044;-56
2021/10/01 14:21:19;;;;;;;5.45;2.80;;;17.90;79.60;;;;;;5083557;28;20132;-57
2021/10/01 14:23:45;;;;;;;7.68;2.10;;;17.90;79.70;;;;;;5071321;28;20048;-57
2021/10/01 14:26:10;;;;;;;2.85;1.70;;;17.90;79.90;;;;;;5069999;28;20436;-59
2021/10/01 14:28:36;;;;;;;3.05;1.88;;;17.90;80.10;;;;;;5071288;28;20055;-57
2021/10/01 14:31:02;;;;;;;3.95;2.35;;;17.90;80.30;;;;;;5076550;28;20054;-56